createdAt,value
2016-11-20T00:00:50.945Z,0
2016-11-20T00:01:50.966Z,0
2016-11-20T00:02:50.983Z,0
2016-11-20T00:03:50.707Z,0
2016-11-20T00:04:51.041Z,0
2016-11-20T00:05:51.023Z,0
2016-11-20T00:06:50.720Z,0
2016-11-20T00:07:51.066Z,0
2016-11-20T00:08:50.765Z,0
2016-11-20T00:09:50.807Z,0
2016-11-20T00:10:50.783Z,0
2016-11-20T00:11:50.829Z,0
2016-11-20T00:12:50.833Z,0
2016-11-20T00:13:51.145Z,0
2016-11-20T00:14:51.193Z,0
2016-11-20T00:15:50.855Z,0
2016-11-20T00:16:50.869Z,0
2016-11-20T00:17:50.575Z,0
2016-11-20T00:18:51.529Z,0
2016-11-20T00:19:51.548Z,0
2016-11-20T00:20:51.247Z,0
2016-11-20T00:21:50.944Z,0
2016-11-20T00:22:50.959Z,0
2016-11-20T00:23:51.305Z,0
2016-11-20T00:24:50.991Z,0
2016-11-20T00:25:51.008Z,0
2016-11-20T00:26:51.019Z,0
2016-11-20T00:27:51.348Z,0
2016-11-20T00:28:50.736Z,0
2016-11-20T00:29:50.748Z,0
2016-11-20T00:30:51.395Z,0
2016-11-20T00:31:51.453Z,0
2016-11-20T00:32:51.112Z,0
2016-11-20T00:33:51.135Z,0
2016-11-20T00:34:51.792Z,0
2016-11-20T00:35:51.186Z,0
2016-11-20T00:36:51.493Z,0
2016-11-20T00:37:51.515Z,0
2016-11-20T00:38:51.196Z,0
2016-11-20T00:39:50.900Z,0
2016-11-20T00:40:50.914Z,0
2016-11-20T00:41:51.239Z,0
2016-11-20T00:42:51.261Z,0
2016-11-20T00:43:50.959Z,0
2016-11-20T00:44:51.297Z,0
2016-11-20T00:45:51.621Z,0
2016-11-20T00:46:51.340Z,0
2016-11-20T00:47:51.352Z,0
2016-11-20T00:48:51.369Z,0
2016-11-20T00:49:51.671Z,0
2016-11-20T00:50:51.080Z,0
2016-11-20T00:51:51.074Z,0
2016-11-20T00:52:51.402Z,0
2016-11-20T00:53:51.422Z,0
2016-11-20T00:54:51.751Z,0
2016-11-20T00:55:51.781Z,0
2016-11-20T00:56:51.147Z,0
2016-11-20T00:57:51.478Z,0
2016-11-20T00:58:51.812Z,0
2016-11-20T00:59:51.521Z,0
2016-11-20T01:00:51.213Z,0
2016-11-20T01:01:51.538Z,0
2016-11-20T01:02:51.911Z,0
2016-11-20T01:03:51.568Z,0
2016-11-20T01:04:51.905Z,0
2016-11-20T01:05:51.948Z,0
2016-11-20T01:06:51.932Z,0
2016-11-20T01:07:51.941Z,0
2016-11-20T01:08:51.331Z,0
2016-11-20T01:09:51.661Z,0
2016-11-20T01:10:51.987Z,0
2016-11-20T01:11:52.006Z,0
2016-11-20T01:12:52.025Z,0
2016-11-20T01:13:51.724Z,0
2016-11-20T01:14:51.731Z,0
2016-11-20T01:15:52.371Z,0
2016-11-20T01:16:52.076Z,0
2016-11-20T01:17:51.779Z,0
2016-11-20T01:18:51.788Z,0
2016-11-20T01:19:51.496Z,0
2016-11-20T01:20:52.455Z,0
2016-11-20T01:21:52.495Z,0
2016-11-20T01:22:52.161Z,0
2016-11-20T01:23:51.863Z,0
2016-11-20T01:24:52.211Z,0
2016-11-20T01:25:51.888Z,0
2016-11-20T01:26:52.222Z,0
2016-11-20T01:27:52.240Z,0
2016-11-20T01:28:52.633Z,0
2016-11-20T01:29:52.983Z,0
2016-11-20T01:30:52.609Z,0
2016-11-20T01:31:52.318Z,0
2016-11-20T01:32:51.687Z,0
2016-11-20T01:33:52.326Z,0
2016-11-20T01:34:52.022Z,0
2016-11-20T01:35:52.040Z,0
2016-11-20T01:36:52.374Z,0
2016-11-20T01:37:51.757Z,0
2016-11-20T01:38:52.925Z,0
2016-11-20T01:39:52.439Z,0
2016-11-20T01:40:52.427Z,0
2016-11-20T01:41:52.449Z,0
2016-11-20T01:42:52.147Z,0
2016-11-20T01:43:51.849Z,0
2016-11-20T01:44:52.173Z,0
2016-11-20T01:45:52.187Z,0
2016-11-20T01:46:52.200Z,0
2016-11-20T01:47:52.539Z,0
2016-11-20T01:48:52.237Z,0
2016-11-20T01:49:52.618Z,0
2016-11-20T01:50:52.277Z,0
2016-11-20T01:51:52.593Z,0
2016-11-20T01:52:52.301Z,0
2016-11-20T01:53:52.663Z,0
2016-11-20T01:54:52.660Z,0
2016-11-20T01:55:52.335Z,0
2016-11-20T01:56:52.353Z,0
2016-11-20T01:57:52.367Z,0
2016-11-20T01:58:52.381Z,0
2016-11-20T01:59:52.081Z,0
2016-11-20T02:00:52.102Z,0
2016-11-20T02:01:52.107Z,0
2016-11-20T02:02:52.755Z,0
2016-11-20T02:03:52.774Z,0
2016-11-20T02:04:52.152Z,0
2016-11-20T02:05:52.795Z,0
2016-11-20T02:06:52.500Z,0
2016-11-20T02:07:52.838Z,0
2016-11-20T02:08:52.527Z,0
2016-11-20T02:09:52.863Z,0
2016-11-20T02:10:52.247Z,0
2016-11-20T02:11:52.892Z,0
2016-11-20T02:12:52.897Z,0
2016-11-20T02:13:52.913Z,0
2016-11-20T02:14:53.251Z,0
2016-11-20T02:15:52.950Z,0
2016-11-20T02:16:52.652Z,0
2016-11-20T02:17:52.664Z,0
2016-11-20T02:18:52.729Z,0
2016-11-20T02:19:52.384Z,0
2016-11-20T02:20:52.391Z,0
2016-11-20T02:21:52.725Z,0
2016-11-20T02:22:53.073Z,0
2016-11-20T02:23:53.098Z,0
2016-11-20T02:24:52.792Z,0
2016-11-20T02:25:52.470Z,0
2016-11-20T02:26:52.812Z,0
2016-11-20T02:27:52.834Z,0
2016-11-20T02:28:52.507Z,0
2016-11-20T02:29:52.841Z,0
2016-11-20T02:30:53.171Z,0
2016-11-20T02:31:52.889Z,0
2016-11-20T02:32:52.593Z,0
2016-11-20T02:33:53.530Z,0
2016-11-20T02:34:52.911Z,0
2016-11-20T02:35:53.246Z,0
2016-11-20T02:36:53.263Z,0
2016-11-20T02:37:52.645Z,0
2016-11-20T02:38:53.318Z,0
2016-11-20T02:39:53.335Z,0
2016-11-20T02:40:52.685Z,0
2016-11-20T02:41:53.367Z,0
2016-11-20T02:42:53.346Z,0
2016-11-20T02:43:53.043Z,0
2016-11-20T02:44:53.691Z,0
2016-11-20T02:45:53.082Z,0
2016-11-20T02:46:52.801Z,0
2016-11-20T02:47:53.426Z,0
2016-11-20T02:48:53.433Z,0
2016-11-20T02:49:53.136Z,0
2016-11-20T02:50:53.782Z,0
2016-11-20T02:51:52.851Z,0
2016-11-20T02:52:53.184Z,0
2016-11-20T02:53:53.511Z,0
2016-11-20T02:54:53.213Z,0
2016-11-20T02:55:53.225Z,0
2016-11-20T02:56:53.553Z,0
2016-11-20T02:57:53.249Z,0
2016-11-20T02:58:52.961Z,0
2016-11-20T02:59:52.972Z,0
2016-11-20T03:00:52.984Z,0
2016-11-20T03:01:53.627Z,0
2016-11-20T03:02:53.328Z,0
2016-11-20T03:03:53.658Z,0
2016-11-20T03:04:53.673Z,0
2016-11-20T03:05:53.369Z,0
2016-11-20T03:06:53.709Z,0
2016-11-20T03:07:53.402Z,0
2016-11-20T03:08:53.730Z,0
2016-11-20T03:09:53.746Z,0
2016-11-20T03:10:53.448Z,0
2016-11-20T03:11:54.085Z,0
2016-11-20T03:12:53.474Z,0
2016-11-20T03:13:53.832Z,0
2016-11-20T03:14:53.194Z,0
2016-11-20T03:15:53.206Z,0
2016-11-20T03:16:53.844Z,0
2016-11-20T03:17:53.230Z,0
2016-11-20T03:18:53.246Z,0
2016-11-20T03:19:53.255Z,0
2016-11-20T03:20:53.908Z,0
2016-11-20T03:21:53.289Z,0
2016-11-20T03:22:53.932Z,0
2016-11-20T03:23:53.637Z,0
2016-11-20T03:24:53.650Z,0
2016-11-20T03:25:53.671Z,0
2016-11-20T03:26:53.363Z,0
2016-11-20T03:27:53.694Z,0
2016-11-20T03:28:53.397Z,0
2016-11-20T03:29:53.719Z,0
2016-11-20T03:30:54.058Z,0
2016-11-20T03:31:54.385Z,0
2016-11-20T03:32:54.083Z,0
2016-11-20T03:33:53.780Z,0
2016-11-20T03:34:53.796Z,0
2016-11-20T03:35:53.501Z,0
2016-11-20T03:36:53.510Z,0
2016-11-20T03:37:54.163Z,0
2016-11-20T03:38:53.884Z,0
2016-11-20T03:39:53.555Z,0
2016-11-20T03:40:53.891Z,0
2016-11-20T03:41:53.591Z,0
2016-11-20T03:42:54.242Z,0
2016-11-20T03:43:53.932Z,0
2016-11-20T03:44:53.641Z,0
2016-11-20T03:45:54.279Z,0
2016-11-20T03:46:54.295Z,0
2016-11-20T03:47:54.621Z,0
2016-11-20T03:48:54.319Z,0
2016-11-20T03:49:54.029Z,0
2016-11-20T03:50:54.030Z,0
2016-11-20T03:51:54.364Z,0
2016-11-20T03:52:54.058Z,0
2016-11-20T03:53:54.075Z,0
2016-11-20T03:54:54.092Z,0
2016-11-20T03:55:54.422Z,0
2016-11-20T03:56:53.807Z,0
2016-11-20T03:57:54.463Z,0
2016-11-20T03:58:54.148Z,0
2016-11-20T03:59:54.164Z,0
2016-11-20T04:00:54.179Z,0
2016-11-20T04:01:53.878Z,0
2016-11-20T04:02:54.223Z,0
2016-11-20T04:03:54.848Z,0
2016-11-20T04:04:54.249Z,0
2016-11-20T04:05:53.949Z,0
2016-11-20T04:06:54.265Z,0
2016-11-20T04:07:54.277Z,0
2016-11-20T04:08:54.295Z,0
2016-11-20T04:09:54.307Z,0
2016-11-20T04:10:54.644Z,0
2016-11-20T04:11:54.689Z,0
2016-11-20T04:12:54.357Z,0
2016-11-20T04:13:54.058Z,0
2016-11-20T04:14:54.384Z,0
2016-11-20T04:15:54.393Z,0
2016-11-20T04:16:54.413Z,0
2016-11-20T04:17:55.055Z,0
2016-11-20T04:18:54.132Z,0
2016-11-20T04:19:54.769Z,0
2016-11-20T04:20:54.788Z,0
2016-11-20T04:21:54.485Z,0
2016-11-20T04:22:54.499Z,0
2016-11-20T04:23:54.516Z,0
2016-11-20T04:24:54.533Z,0
2016-11-20T04:25:54.545Z,0
2016-11-20T04:26:54.555Z,0
2016-11-20T04:27:54.261Z,0
2016-11-20T04:28:54.587Z,0
2016-11-20T04:29:54.607Z,0
2016-11-20T04:30:54.939Z,0
2016-11-20T04:31:54.946Z,0
2016-11-20T04:32:54.647Z,0
2016-11-20T04:33:54.997Z,0
2016-11-20T04:34:55.308Z,0
2016-11-20T04:35:55.320Z,0
2016-11-20T04:36:55.121Z,0
2016-11-20T04:37:54.764Z,0
2016-11-20T04:38:54.728Z,0
2016-11-20T04:39:55.067Z,0
2016-11-20T04:40:55.082Z,0
2016-11-20T04:41:54.776Z,0
2016-11-20T04:42:55.105Z,0
2016-11-20T04:43:54.805Z,0
2016-11-20T04:44:55.454Z,0
2016-11-20T04:45:54.841Z,0
2016-11-20T04:46:55.482Z,0
2016-11-20T04:47:54.867Z,0
2016-11-20T04:48:54.882Z,0
2016-11-20T04:49:54.896Z,0
2016-11-20T04:50:55.225Z,0
2016-11-20T04:51:55.237Z,0
2016-11-20T04:52:54.617Z,0
2016-11-20T04:53:54.671Z,0
2016-11-20T04:54:54.965Z,0
2016-11-20T04:55:55.342Z,0
2016-11-20T04:56:55.310Z,0
2016-11-20T04:57:55.327Z,0
2016-11-20T04:58:55.027Z,0
2016-11-20T04:59:55.353Z,0
2016-11-20T05:00:55.055Z,0
2016-11-20T05:01:55.699Z,0
2016-11-20T05:02:55.289Z,0
2016-11-20T05:03:55.414Z,0
2016-11-20T05:04:55.428Z,0
2016-11-20T05:05:54.823Z,0
2016-11-20T05:06:55.139Z,0
2016-11-20T05:07:55.163Z,0
2016-11-20T05:08:55.487Z,0
2016-11-20T05:09:55.201Z,0
2016-11-20T05:10:55.521Z,0
2016-11-20T05:11:55.528Z,0
2016-11-20T05:12:55.544Z,0
2016-11-20T05:13:55.872Z,0
2016-11-20T05:14:54.939Z,0
2016-11-20T05:15:55.910Z,0
2016-11-20T05:16:55.608Z,0
2016-11-20T05:17:55.300Z,0
2016-11-20T05:18:55.319Z,0
2016-11-20T05:19:55.331Z,0
2016-11-20T05:20:55.673Z,0
2016-11-20T05:21:55.045Z,0
2016-11-20T05:22:55.385Z,0
2016-11-20T05:23:55.070Z,0
2016-11-20T05:24:55.413Z,0
2016-11-20T05:25:55.428Z,0
2016-11-20T05:26:55.123Z,0
2016-11-20T05:27:55.447Z,0
2016-11-20T05:28:55.490Z,0
2016-11-20T05:29:55.160Z,0
2016-11-20T05:30:55.172Z,0
2016-11-20T05:31:55.191Z,0
2016-11-20T05:32:55.202Z,0
2016-11-20T05:33:55.532Z,0
2016-11-20T05:34:55.871Z,0
2016-11-20T05:35:55.882Z,0
2016-11-20T05:36:55.262Z,0
2016-11-20T05:37:55.590Z,0
2016-11-20T05:38:55.921Z,0
2016-11-20T05:39:55.620Z,0
2016-11-20T05:40:55.950Z,0
2016-11-20T05:41:55.650Z,0
2016-11-20T05:42:55.351Z,0
2016-11-20T05:43:55.995Z,0
2016-11-20T05:44:56.041Z,0
2016-11-20T05:45:56.343Z,0
2016-11-20T05:46:55.408Z,0
2016-11-20T05:47:55.416Z,0
2016-11-20T05:48:55.752Z,0
2016-11-20T05:49:56.077Z,0
2016-11-20T05:50:55.789Z,0
2016-11-20T05:51:56.111Z,0
2016-11-20T05:52:56.127Z,0
2016-11-20T05:53:56.160Z,0
2016-11-20T05:54:55.839Z,0
2016-11-20T05:55:56.485Z,0
2016-11-20T05:56:56.184Z,0
2016-11-20T05:57:55.878Z,0
2016-11-20T05:58:55.919Z,0
2016-11-20T05:59:56.547Z,0
2016-11-20T06:00:55.921Z,0
2016-11-20T06:01:56.260Z,0
2016-11-20T06:02:56.278Z,0
2016-11-20T06:03:55.650Z,0
2016-11-20T06:04:56.617Z,0
2016-11-20T06:05:56.348Z,0
2016-11-20T06:06:55.730Z,0
2016-11-20T06:07:56.375Z,0
2016-11-20T06:08:56.037Z,0
2016-11-20T06:09:56.371Z,4
2016-11-20T06:10:56.380Z,4
2016-11-20T06:11:56.712Z,4
2016-11-20T06:12:56.119Z,0
2016-11-20T06:13:56.430Z,4
2016-11-20T06:14:55.809Z,4
2016-11-20T06:15:55.829Z,4
2016-11-20T06:16:56.154Z,4
2016-11-20T06:17:55.852Z,4
2016-11-20T06:18:56.185Z,4
2016-11-20T06:19:55.884Z,8
2016-11-20T06:20:56.210Z,4
2016-11-20T06:21:56.548Z,4
2016-11-20T06:22:56.571Z,8
2016-11-20T06:23:56.260Z,8
2016-11-20T06:24:56.589Z,8
2016-11-20T06:25:55.979Z,8
2016-11-20T06:26:56.312Z,8
2016-11-20T06:27:56.002Z,8
2016-11-20T06:28:56.338Z,8
2016-11-20T06:29:56.679Z,12
2016-11-20T06:30:56.673Z,8
2016-11-20T06:31:56.372Z,12
2016-11-20T06:32:56.092Z,16
2016-11-20T06:33:56.412Z,12
2016-11-20T06:34:56.416Z,16
2016-11-20T06:35:56.748Z,16
2016-11-20T06:36:56.774Z,20
2016-11-20T06:37:56.795Z,20
2016-11-20T06:38:56.789Z,24
2016-11-20T06:39:56.488Z,20
2016-11-20T06:40:56.504Z,28
2016-11-20T06:41:56.521Z,28
2016-11-20T06:42:56.881Z,32
2016-11-20T06:43:56.863Z,40
2016-11-20T06:44:56.919Z,44
2016-11-20T06:45:56.898Z,52
2016-11-20T06:46:56.908Z,60
2016-11-20T06:47:57.242Z,64
2016-11-20T06:48:56.621Z,68
2016-11-20T06:49:56.953Z,76
2016-11-20T06:50:56.962Z,76
2016-11-20T06:51:56.668Z,84
2016-11-20T06:52:57.310Z,84
2016-11-20T06:53:56.694Z,84
2016-11-20T06:54:57.026Z,88
2016-11-20T06:55:56.722Z,88
2016-11-20T06:56:57.058Z,92
2016-11-20T06:57:57.077Z,92
2016-11-20T06:58:57.094Z,96
2016-11-20T06:59:56.469Z,100
2016-11-20T07:00:57.113Z,104
2016-11-20T07:01:56.811Z,112
2016-11-20T07:02:56.822Z,112
2016-11-20T07:03:57.156Z,120
2016-11-20T07:04:56.537Z,128
2016-11-20T07:05:57.504Z,136
2016-11-20T07:06:56.886Z,140
2016-11-20T07:07:56.899Z,148
2016-11-20T07:08:57.226Z,156
2016-11-20T07:09:56.611Z,164
2016-11-20T07:10:57.255Z,172
2016-11-20T07:11:57.636Z,184
2016-11-20T07:12:56.972Z,196
2016-11-20T07:13:56.993Z,204
2016-11-20T07:14:57.003Z,216
2016-11-20T07:15:57.016Z,216
2016-11-20T07:16:57.671Z,224
2016-11-20T07:17:57.674Z,236
2016-11-20T07:18:57.698Z,248
2016-11-20T07:19:57.391Z,264
2016-11-20T07:20:57.413Z,276
2016-11-20T07:21:57.422Z,292
2016-11-20T07:22:57.128Z,308
2016-11-20T07:24:12.032Z,328
2016-11-20T07:24:57.149Z,344
2016-11-20T07:25:57.485Z,352
2016-11-20T07:26:57.501Z,360
2016-11-20T07:27:57.199Z,360
2016-11-20T07:28:57.217Z,372
2016-11-20T07:29:57.857Z,380
2016-11-20T07:30:57.242Z,396
2016-11-20T07:31:57.571Z,408
2016-11-20T07:32:57.295Z,416
2016-11-20T07:33:56.970Z,432
2016-11-20T07:34:56.980Z,452
2016-11-20T07:35:57.312Z,468
2016-11-20T07:36:57.019Z,480
2016-11-20T07:37:57.346Z,500
2016-11-20T07:38:57.362Z,520
2016-11-20T07:39:57.373Z,524
2016-11-20T07:40:57.736Z,528
2016-11-20T07:41:57.091Z,520
2016-11-20T07:42:57.424Z,516
2016-11-20T07:43:57.448Z,512
2016-11-20T07:44:57.454Z,516
2016-11-20T07:45:58.106Z,524
2016-11-20T07:46:57.798Z,528
2016-11-20T07:47:57.809Z,544
2016-11-20T07:48:57.193Z,548
2016-11-20T07:49:57.535Z,556
2016-11-20T07:50:57.543Z,560
2016-11-20T07:51:57.554Z,560
2016-11-20T07:52:57.889Z,568
2016-11-20T07:53:57.932Z,572
2016-11-20T07:54:57.597Z,592
2016-11-20T07:55:57.615Z,604
2016-11-20T07:56:58.261Z,604
2016-11-20T07:57:57.650Z,612
2016-11-20T07:58:57.348Z,636
2016-11-20T07:59:57.999Z,640
2016-11-20T08:00:57.380Z,644
2016-11-20T08:01:58.032Z,660
2016-11-20T08:02:57.725Z,676
2016-11-20T08:03:58.382Z,744
2016-11-20T08:04:58.089Z,784
2016-11-20T08:05:57.772Z,812
2016-11-20T08:06:58.104Z,896
2016-11-20T08:07:57.487Z,1080
2016-11-20T08:08:58.140Z,1224
2016-11-20T08:09:57.849Z,1148
2016-11-20T08:10:58.159Z,1124
2016-11-20T08:11:58.195Z,1112
2016-11-20T08:12:57.888Z,900
2016-11-20T08:13:58.211Z,896
2016-11-20T08:14:57.606Z,1016
2016-11-20T08:15:57.928Z,948
2016-11-20T08:16:58.568Z,868
2016-11-20T08:17:58.270Z,928
2016-11-20T08:18:57.968Z,852
2016-11-20T08:19:58.307Z,836
2016-11-20T08:20:58.317Z,860
2016-11-20T08:21:58.333Z,904
2016-11-20T08:22:58.039Z,900
2016-11-20T08:23:58.367Z,976
2016-11-20T08:24:58.067Z,920
2016-11-20T08:25:58.724Z,984
2016-11-20T08:26:58.432Z,960
2016-11-20T08:27:58.433Z,964
2016-11-20T08:28:58.442Z,980
2016-11-20T08:29:58.160Z,960
2016-11-20T08:30:58.170Z,960
2016-11-20T08:31:58.526Z,936
2016-11-20T08:32:58.191Z,912
2016-11-20T08:33:58.224Z,908
2016-11-20T08:34:58.854Z,932
2016-11-20T08:35:58.236Z,936
2016-11-20T08:36:57.948Z,952
2016-11-20T08:37:58.275Z,992
2016-11-20T08:38:58.288Z,1044
2016-11-20T08:39:58.943Z,1092
2016-11-20T08:40:58.320Z,1144
2016-11-20T08:41:58.654Z,1244
2016-11-20T08:42:58.669Z,1380
2016-11-20T08:43:58.052Z,1528
2016-11-20T08:44:58.393Z,1908
2016-11-20T08:45:58.089Z,2172
2016-11-20T08:46:58.417Z,2828
2016-11-20T08:47:58.439Z,6348
2016-11-20T08:48:58.776Z,7828
2016-11-20T08:49:58.468Z,5572
2016-11-20T08:50:58.802Z,2360
2016-11-20T08:51:58.820Z,1812
2016-11-20T08:52:58.831Z,1512
2016-11-20T08:53:58.223Z,1456
2016-11-20T08:54:58.555Z,1580
2016-11-20T08:55:58.572Z,1604
2016-11-20T08:56:58.583Z,1648
2016-11-20T08:57:58.620Z,1480
2016-11-20T08:58:59.256Z,1504
2016-11-20T08:59:58.319Z,1504
2016-11-20T09:00:58.335Z,1536
2016-11-20T09:01:58.694Z,1404
2016-11-20T09:02:59.031Z,1452
2016-11-20T09:03:58.409Z,1544
2016-11-20T09:04:58.739Z,1648
2016-11-20T09:05:58.742Z,1912
2016-11-20T09:06:58.757Z,2856
2016-11-20T09:07:59.113Z,4364
2016-11-20T09:08:58.470Z,2804
2016-11-20T09:09:58.808Z,3604
2016-11-20T09:10:58.822Z,2896
2016-11-20T09:11:59.159Z,2536
2016-11-20T09:12:58.558Z,2572
2016-11-20T09:13:58.877Z,2184
2016-11-20T09:14:59.216Z,1688
2016-11-20T09:15:59.229Z,2048
2016-11-20T09:16:59.248Z,1632
2016-11-20T09:17:58.634Z,1464
2016-11-20T09:18:59.295Z,1376
2016-11-20T09:19:58.672Z,1388
2016-11-20T09:20:59.322Z,1484
2016-11-20T09:21:59.025Z,1448
2016-11-20T09:23:13.617Z,1800
2016-11-20T09:23:58.752Z,1892
2016-11-20T09:24:59.403Z,1784
2016-11-20T09:25:58.783Z,1756
2016-11-20T09:26:59.114Z,1704
2016-11-20T09:27:59.471Z,1624
2016-11-20T09:28:59.159Z,1556
2016-11-20T09:29:59.176Z,1548
2016-11-20T09:30:59.819Z,1460
2016-11-20T09:31:59.528Z,1416
2016-11-20T09:32:58.914Z,1396
2016-11-20T09:33:59.247Z,1408
2016-11-20T09:34:58.947Z,1424
2016-11-20T09:35:59.288Z,1492
2016-11-20T09:36:58.988Z,1392
2016-11-20T09:37:59.328Z,1364
2016-11-20T09:39:00.003Z,1360
2016-11-20T09:39:59.676Z,1412
2016-11-20T09:40:59.382Z,1464
2016-11-20T09:41:59.399Z,1568
2016-11-20T09:42:59.433Z,1520
2016-11-20T09:43:59.750Z,1636
2016-11-20T09:44:59.139Z,1640
2016-11-20T09:45:59.160Z,1524
2016-11-20T09:46:59.179Z,1516
2016-11-20T09:47:59.513Z,1544
2016-11-20T09:48:59.857Z,1496
2016-11-20T09:49:59.549Z,1480
2016-11-20T09:50:59.302Z,1500
2016-11-20T09:51:59.906Z,1552
2016-11-20T09:52:59.608Z,1648
2016-11-20T09:53:59.314Z,1540
2016-11-20T09:54:59.331Z,1428
2016-11-20T09:56:00.304Z,1356
2016-11-20T09:57:00.025Z,1356
2016-11-20T09:58:00.418Z,1904
2016-11-20T09:58:59.422Z,1412
2016-11-20T09:59:59.448Z,1332
2016-11-20T10:01:00.082Z,1544
2016-11-20T10:02:00.099Z,1368
2016-11-20T10:03:00.149Z,1472
2016-11-20T10:04:00.145Z,1508
2016-11-20T10:04:59.545Z,1640
2016-11-20T10:06:00.179Z,1524
2016-11-20T10:06:59.887Z,1284
2016-11-20T10:08:00.218Z,1316
2016-11-20T10:08:59.943Z,1432
2016-11-20T10:10:00.577Z,1480
2016-11-20T10:11:00.289Z,1688
2016-11-20T10:11:59.988Z,1676
2016-11-20T10:13:00.002Z,1600
2016-11-20T10:14:00.022Z,1936
2016-11-20T10:15:00.045Z,1960
2016-11-20T10:16:00.695Z,1864
2016-11-20T10:17:00.400Z,1924
2016-11-20T10:18:00.445Z,1880
2016-11-20T10:19:00.139Z,2280
2016-11-20T10:20:00.459Z,2284
2016-11-20T10:21:00.165Z,2508
2016-11-20T10:22:00.825Z,2248
2016-11-20T10:23:00.520Z,1840
2016-11-20T10:23:59.911Z,1876
2016-11-20T10:25:00.247Z,1280
2016-11-20T10:26:00.930Z,1248
2016-11-20T10:26:59.970Z,1276
2016-11-20T10:28:00.942Z,1360
2016-11-20T10:29:00.642Z,1464
2016-11-20T10:30:00.664Z,1540
2016-11-20T10:31:00.379Z,1260
2016-11-20T10:32:01.016Z,1268
2016-11-20T10:33:00.423Z,1192
2016-11-20T10:34:00.438Z,1200
2016-11-20T10:35:00.774Z,1164
2016-11-20T10:36:00.474Z,1204
2016-11-20T10:37:00.496Z,1396
2016-11-20T10:38:00.205Z,1260
2016-11-20T10:39:00.535Z,1100
2016-11-20T10:40:00.562Z,1208
2016-11-20T10:41:00.574Z,1140
2016-11-20T10:42:00.598Z,1076
2016-11-20T10:43:00.306Z,1100
2016-11-20T10:44:00.952Z,1140
2016-11-20T10:45:00.359Z,1228
2016-11-20T10:46:01.018Z,1128
2016-11-20T10:47:00.702Z,1144
2016-11-20T10:48:00.407Z,1100
2016-11-20T10:49:00.754Z,1132
2016-11-20T10:50:01.081Z,1112
2016-11-20T10:51:01.096Z,1088
2016-11-20T10:52:01.115Z,1188
2016-11-20T10:53:01.160Z,1192
2016-11-20T10:54:01.172Z,1156
2016-11-20T10:55:00.549Z,1096
2016-11-20T10:56:00.884Z,984
2016-11-20T10:57:01.246Z,988
2016-11-20T10:58:01.247Z,960
2016-11-20T10:59:00.952Z,944
2016-11-20T11:00:00.661Z,1000
2016-11-20T11:01:00.673Z,1056
2016-11-20T11:02:01.007Z,984
2016-11-20T11:03:01.350Z,896
2016-11-20T11:04:01.381Z,836
2016-11-20T11:05:01.404Z,848
2016-11-20T11:06:01.407Z,872
2016-11-20T11:07:01.112Z,844
2016-11-20T11:08:01.143Z,844
2016-11-20T11:09:01.154Z,840
2016-11-20T11:10:01.493Z,824
2016-11-20T11:11:01.196Z,816
2016-11-20T11:12:01.226Z,828
2016-11-20T11:13:00.921Z,776
2016-11-20T11:14:01.274Z,776
2016-11-20T11:15:01.600Z,752
2016-11-20T11:16:01.630Z,768
2016-11-20T11:17:01.323Z,748
2016-11-20T11:18:01.032Z,744
2016-11-20T11:19:01.399Z,740
2016-11-20T11:20:01.071Z,768
2016-11-20T11:21:01.424Z,764
2016-11-20T11:22:01.748Z,768
2016-11-20T11:23:01.447Z,780
2016-11-20T11:24:01.483Z,780
2016-11-20T11:25:01.503Z,776
2016-11-20T11:26:01.829Z,772
2016-11-20T11:27:01.536Z,756
2016-11-20T11:28:01.566Z,772
2016-11-20T11:29:01.895Z,792
2016-11-20T11:30:01.284Z,832
2016-11-20T11:31:01.985Z,812
2016-11-20T11:32:01.636Z,808
2016-11-20T11:33:01.661Z,816
2016-11-20T11:34:01.693Z,812
2016-11-20T11:35:02.026Z,816
2016-11-20T11:36:01.722Z,820
2016-11-20T11:37:02.065Z,828
2016-11-20T11:38:01.767Z,816
2016-11-20T11:39:02.425Z,828
2016-11-20T11:40:02.123Z,820
2016-11-20T11:41:02.172Z,816
2016-11-20T11:42:01.852Z,824
2016-11-20T11:43:01.883Z,848
2016-11-20T11:44:02.210Z,836
2016-11-20T11:45:01.922Z,796
2016-11-20T11:46:01.639Z,780
2016-11-20T11:47:01.641Z,784
2016-11-20T11:48:01.691Z,780
2016-11-20T11:49:02.318Z,712
2016-11-20T11:50:02.049Z,672
2016-11-20T11:51:01.782Z,656
2016-11-20T11:52:01.798Z,644
2016-11-20T11:53:01.803Z,640
2016-11-20T11:54:02.455Z,652
2016-11-20T11:55:02.146Z,640
2016-11-20T11:56:02.224Z,648
2016-11-20T11:57:02.170Z,648
2016-11-20T11:58:02.831Z,660
2016-11-20T11:59:01.911Z,656
2016-11-20T12:00:02.553Z,652
2016-11-20T12:01:02.890Z,632
2016-11-20T12:02:02.283Z,652
2016-11-20T12:03:02.614Z,652
2016-11-20T12:04:02.646Z,644
2016-11-20T12:05:02.671Z,656
2016-11-20T12:06:02.371Z,668
2016-11-20T12:07:02.708Z,668
2016-11-20T12:08:03.051Z,632
2016-11-20T12:09:02.748Z,620
2016-11-20T12:10:02.450Z,612
2016-11-20T12:11:02.798Z,596
2016-11-20T12:12:03.150Z,592
2016-11-20T12:13:02.858Z,588
2016-11-20T12:14:02.538Z,580
2016-11-20T12:15:02.562Z,572
2016-11-20T12:16:17.479Z,576
2016-11-20T12:17:02.607Z,580
2016-11-20T12:18:02.645Z,580
2016-11-20T12:19:03.290Z,584
2016-11-20T12:20:03.006Z,592
2016-11-20T12:21:03.031Z,612
2016-11-20T12:22:03.346Z,628
2016-11-20T12:23:02.736Z,636
2016-11-20T12:24:02.768Z,680
2016-11-20T12:25:03.097Z,704
2016-11-20T12:26:02.813Z,676
2016-11-20T12:27:03.694Z,684
2016-11-20T12:28:02.850Z,632
2016-11-20T12:29:02.884Z,596
2016-11-20T12:30:03.204Z,572
2016-11-20T12:31:02.910Z,560
2016-11-20T12:32:02.932Z,544
2016-11-20T12:33:03.476Z,552
2016-11-20T12:34:03.289Z,556
2016-11-20T12:35:03.325Z,556
2016-11-20T12:36:03.663Z,572
2016-11-20T12:37:03.052Z,576
2016-11-20T12:38:03.059Z,576
2016-11-20T12:39:03.408Z,580
2016-11-20T12:40:03.736Z,636
2016-11-20T12:41:03.143Z,596
2016-11-20T12:42:03.166Z,536
2016-11-20T12:43:02.862Z,516
2016-11-20T12:44:02.883Z,500
2016-11-20T12:45:03.854Z,488
2016-11-20T12:46:03.548Z,496
2016-11-20T12:47:03.257Z,512
2016-11-20T12:48:02.962Z,528
2016-11-20T12:49:03.620Z,504
2016-11-20T12:50:03.649Z,532
2016-11-20T12:51:03.665Z,536
2016-11-20T12:52:03.691Z,560
2016-11-20T12:53:03.109Z,536
2016-11-20T12:54:03.411Z,508
2016-11-20T12:55:03.436Z,492
2016-11-20T12:56:03.771Z,516
2016-11-20T12:57:04.113Z,572
2016-11-20T12:58:03.495Z,596
2016-11-20T12:59:03.857Z,544
2016-11-20T13:00:03.233Z,528
2016-11-20T13:01:03.572Z,540
2016-11-20T13:02:03.592Z,576
2016-11-20T13:03:03.929Z,568
2016-11-20T13:04:03.960Z,504
2016-11-20T13:05:03.662Z,564
2016-11-20T13:06:04.009Z,564
2016-11-20T13:07:03.698Z,612
2016-11-20T13:08:04.035Z,732
2016-11-20T13:09:03.749Z,708
2016-11-20T13:10:04.084Z,740
2016-11-20T13:11:03.785Z,768
2016-11-20T13:12:04.127Z,732
2016-11-20T13:13:04.461Z,688
2016-11-20T13:14:04.168Z,628
2016-11-20T13:15:03.877Z,564
2016-11-20T13:16:03.922Z,532
2016-11-20T13:17:03.616Z,552
2016-11-20T13:18:04.287Z,528
2016-11-20T13:19:04.296Z,512
2016-11-20T13:20:04.313Z,520
2016-11-20T13:21:04.324Z,508
2016-11-20T13:22:04.667Z,520
2016-11-20T13:23:03.745Z,576
2016-11-20T13:24:04.076Z,592
2016-11-20T13:25:04.419Z,596
2016-11-20T13:26:04.125Z,616
2016-11-20T13:27:04.188Z,652
2016-11-20T13:28:04.490Z,596
2016-11-20T13:29:03.883Z,588
2016-11-20T13:30:04.226Z,584
2016-11-20T13:31:04.870Z,536
2016-11-20T13:32:03.956Z,524
2016-11-20T13:33:04.600Z,520
2016-11-20T13:34:04.629Z,504
2016-11-20T13:35:04.023Z,516
2016-11-20T13:36:04.037Z,472
2016-11-20T13:37:04.690Z,480
2016-11-20T13:38:04.739Z,480
2016-11-20T13:39:04.739Z,496
2016-11-20T13:40:04.444Z,472
2016-11-20T13:41:04.783Z,468
2016-11-20T13:42:04.174Z,476
2016-11-20T13:43:04.830Z,496
2016-11-20T13:44:04.536Z,508
2016-11-20T13:45:04.875Z,552
2016-11-20T13:46:04.582Z,572
2016-11-20T13:47:04.607Z,564
2016-11-20T13:48:04.947Z,604
2016-11-20T13:49:04.981Z,596
2016-11-20T13:50:04.356Z,556
2016-11-20T13:51:05.331Z,532
2016-11-20T13:52:04.404Z,696
2016-11-20T13:53:05.405Z,780
2016-11-20T13:54:05.081Z,728
2016-11-20T13:55:04.539Z,660
2016-11-20T13:56:04.498Z,676
2016-11-20T13:57:04.841Z,668
2016-11-20T13:58:04.539Z,728
2016-11-20T13:59:05.193Z,792
2016-11-20T14:00:04.608Z,740
2016-11-20T14:01:04.927Z,724
2016-11-20T14:02:04.953Z,692
2016-11-20T14:03:05.286Z,608
2016-11-20T14:04:04.994Z,712
2016-11-20T14:05:05.667Z,680
2016-11-20T14:06:04.723Z,684
2016-11-20T14:07:05.377Z,620
2016-11-20T14:08:05.398Z,604
2016-11-20T14:09:05.119Z,564